sensor_id;sensor_type;location;lat;lon;timestamp;P1;durP1;ratioP1;P2;durP2;ratioP2
50128;SDS011;36026;45.478;9.224;2022-10-22T00:01:44;19.85;;;14.85;;
50128;SDS011;36026;45.478;9.224;2022-10-22T00:04:46;19.40;;;14.37;;
50128;SDS011;36026;45.478;9.224;2022-10-22T00:07:48;21.50;;;14.20;;
50128;SDS011;36026;45.478;9.224;2022-10-22T00:10:50;18.20;;;13.23;;
50128;SDS011;36026;45.478;9.224;2022-10-22T00:13:52;19.55;;;13.25;;
50128;SDS011;36026;45.478;9.224;2022-10-22T00:16:55;21.38;;;14.02;;
50128;SDS011;36026;45.478;9.224;2022-10-22T00:19:59;18.33;;;14.32;;
50128;SDS011;36026;45.478;9.224;2022-10-22T00:23:01;22.77;;;14.95;;
50128;SDS011;36026;45.478;9.224;2022-10-22T00:26:03;19.33;;;14.07;;
50128;SDS011;36026;45.478;9.224;2022-10-22T00:29:05;23.58;;;13.98;;
50128;SDS011;36026;45.478;9.224;2022-10-22T00:32:08;21.80;;;15.13;;
50128;SDS011;36026;45.478;9.224;2022-10-22T00:35:10;18.10;;;13.85;;
50128;SDS011;36026;45.478;9.224;2022-10-22T00:38:11;21.15;;;14.35;;
50128;SDS011;36026;45.478;9.224;2022-10-22T00:41:13;25.30;;;13.75;;
50128;SDS011;36026;45.478;9.224;2022-10-22T00:47:56;21.30;;;13.88;;
50128;SDS011;36026;45.478;9.224;2022-10-22T00:51:02;20.05;;;13.65;;
50128;SDS011;36026;45.478;9.224;2022-10-22T00:54:05;19.27;;;14.00;;
50128;SDS011;36026;45.478;9.224;2022-10-22T00:57:08;19.38;;;13.52;;
50128;SDS011;36026;45.478;9.224;2022-10-22T01:00:11;20.75;;;14.65;;
50128;SDS011;36026;45.478;9.224;2022-10-22T01:03:14;21.63;;;14.30;;
50128;SDS011;36026;45.478;9.224;2022-10-22T01:06:21;18.73;;;13.98;;
50128;SDS011;36026;45.478;9.224;2022-10-22T01:09:26;20.52;;;14.40;;
50128;SDS011;36026;45.478;9.224;2022-10-22T01:12:34;20.13;;;15.02;;
50128;SDS011;36026;45.478;9.224;2022-10-22T01:15:46;23.08;;;13.88;;
50128;SDS011;36026;45.478;9.224;2022-10-22T01:18:54;18.13;;;13.10;;
50128;SDS011;36026;45.478;9.224;2022-10-22T01:22:03;17.45;;;13.20;;
50128;SDS011;36026;45.478;9.224;2022-10-22T01:25:09;20.80;;;13.40;;
50128;SDS011;36026;45.478;9.224;2022-10-22T01:28:17;20.67;;;13.45;;
50128;SDS011;36026;45.478;9.224;2022-10-22T01:31:25;19.40;;;13.25;;
50128;SDS011;36026;45.478;9.224;2022-10-22T01:34:30;21.15;;;13.98;;
50128;SDS011;36026;45.478;9.224;2022-10-22T01:37:33;19.63;;;13.57;;
50128;SDS011;36026;45.478;9.224;2022-10-22T01:40:37;18.23;;;13.50;;
50128;SDS011;36026;45.478;9.224;2022-10-22T01:43:39;19.98;;;13.80;;
50128;SDS011;36026;45.478;9.224;2022-10-22T01:46:42;17.30;;;13.25;;
50128;SDS011;36026;45.478;9.224;2022-10-22T01:50:03;19.98;;;13.27;;
50128;SDS011;36026;45.478;9.224;2022-10-22T01:53:20;21.38;;;13.05;;
50128;SDS011;36026;45.478;9.224;2022-10-22T01:56:30;16.05;;;12.95;;
50128;SDS011;36026;45.478;9.224;2022-10-22T01:59:44;19.98;;;13.35;;
50128;SDS011;36026;45.478;9.224;2022-10-22T02:02:53;18.52;;;12.55;;
50128;SDS011;36026;45.478;9.224;2022-10-22T02:06:00;16.80;;;12.93;;
50128;SDS011;36026;45.478;9.224;2022-10-22T02:09:04;16.67;;;12.77;;
50128;SDS011;36026;45.478;9.224;2022-10-22T02:12:08;20.67;;;13.75;;
50128;SDS011;36026;45.478;9.224;2022-10-22T02:15:09;18.90;;;13.00;;
50128;SDS011;36026;45.478;9.224;2022-10-22T02:18:14;21.35;;;13.00;;
50128;SDS011;36026;45.478;9.224;2022-10-22T02:21:17;17.13;;;12.23;;
50128;SDS011;36026;45.478;9.224;2022-10-22T02:24:19;16.70;;;12.07;;
50128;SDS011;36026;45.478;9.224;2022-10-22T02:27:23;19.02;;;13.30;;
50128;SDS011;36026;45.478;9.224;2022-10-22T02:30:27;15.52;;;11.95;;
50128;SDS011;36026;45.478;9.224;2022-10-22T02:33:30;18.00;;;12.27;;
50128;SDS011;36026;45.478;9.224;2022-10-22T02:36:34;17.85;;;11.77;;
50128;SDS011;36026;45.478;9.224;2022-10-22T02:39:37;17.77;;;12.60;;
50128;SDS011;36026;45.478;9.224;2022-10-22T02:42:39;15.60;;;11.73;;
50128;SDS011;36026;45.478;9.224;2022-10-22T02:45:42;16.35;;;12.27;;
50128;SDS011;36026;45.478;9.224;2022-10-22T02:48:45;20.95;;;12.50;;
50128;SDS011;36026;45.478;9.224;2022-10-22T02:51:47;18.98;;;12.80;;
50128;SDS011;36026;45.478;9.224;2022-10-22T02:54:49;15.77;;;12.43;;
50128;SDS011;36026;45.478;9.224;2022-10-22T02:57:50;17.05;;;13.00;;
50128;SDS011;36026;45.478;9.224;2022-10-22T03:00:52;18.00;;;12.55;;
50128;SDS011;36026;45.478;9.224;2022-10-22T03:03:55;20.48;;;12.02;;
50128;SDS011;36026;45.478;9.224;2022-10-22T03:06:56;19.17;;;12.87;;
50128;SDS011;36026;45.478;9.224;2022-10-22T03:09:58;18.02;;;12.77;;
50128;SDS011;36026;45.478;9.224;2022-10-22T03:13:00;16.83;;;12.32;;
50128;SDS011;36026;45.478;9.224;2022-10-22T03:16:01;15.20;;;11.77;;
50128;SDS011;36026;45.478;9.224;2022-10-22T03:19:05;18.50;;;12.77;;
50128;SDS011;36026;45.478;9.224;2022-10-22T03:22:07;16.42;;;12.88;;
50128;SDS011;36026;45.478;9.224;2022-10-22T03:25:11;16.70;;;11.90;;
50128;SDS011;36026;45.478;9.224;2022-10-22T03:28:14;15.75;;;12.80;;
50128;SDS011;36026;45.478;9.224;2022-10-22T03:31:17;19.45;;;12.50;;
50128;SDS011;36026;45.478;9.224;2022-10-22T03:34:20;18.60;;;12.88;;
50128;SDS011;36026;45.478;9.224;2022-10-22T03:37:22;15.82;;;11.80;;
50128;SDS011;36026;45.478;9.224;2022-10-22T03:40:24;16.60;;;12.43;;
50128;SDS011;36026;45.478;9.224;2022-10-22T03:43:26;17.13;;;12.30;;
50128;SDS011;36026;45.478;9.224;2022-10-22T03:46:28;18.08;;;12.30;;
50128;SDS011;36026;45.478;9.224;2022-10-22T03:49:31;18.02;;;12.45;;
50128;SDS011;36026;45.478;9.224;2022-10-22T03:52:34;19.08;;;12.68;;
50128;SDS011;36026;45.478;9.224;2022-10-22T03:55:36;16.30;;;12.05;;
50128;SDS011;36026;45.478;9.224;2022-10-22T03:58:38;18.75;;;12.98;;
50128;SDS011;36026;45.478;9.224;2022-10-22T04:01:41;16.48;;;13.05;;
50128;SDS011;36026;45.478;9.224;2022-10-22T04:04:44;18.70;;;13.40;;
50128;SDS011;36026;45.478;9.224;2022-10-22T04:07:46;18.50;;;12.67;;
50128;SDS011;36026;45.478;9.224;2022-10-22T04:10:49;16.13;;;12.90;;
50128;SDS011;36026;45.478;9.224;2022-10-22T04:13:51;14.75;;;11.52;;
50128;SDS011;36026;45.478;9.224;2022-10-22T04:16:53;15.60;;;12.35;;
50128;SDS011;36026;45.478;9.224;2022-10-22T04:19:56;18.27;;;12.32;;
50128;SDS011;36026;45.478;9.224;2022-10-22T04:22:57;21.80;;;12.97;;
50128;SDS011;36026;45.478;9.224;2022-10-22T04:25:59;18.58;;;13.35;;
50128;SDS011;36026;45.478;9.224;2022-10-22T04:29:02;19.73;;;12.95;;
50128;SDS011;36026;45.478;9.224;2022-10-22T04:32:04;21.58;;;13.07;;
50128;SDS011;36026;45.478;9.224;2022-10-22T04:35:07;19.75;;;13.43;;
50128;SDS011;36026;45.478;9.224;2022-10-22T04:38:09;18.92;;;13.10;;
50128;SDS011;36026;45.478;9.224;2022-10-22T04:41:11;16.85;;;12.75;;
50128;SDS011;36026;45.478;9.224;2022-10-22T04:44:14;18.20;;;13.23;;
50128;SDS011;36026;45.478;9.224;2022-10-22T04:47:16;17.23;;;12.85;;
50128;SDS011;36026;45.478;9.224;2022-10-22T04:50:19;19.00;;;12.57;;
50128;SDS011;36026;45.478;9.224;2022-10-22T04:53:21;18.45;;;12.90;;
50128;SDS011;36026;45.478;9.224;2022-10-22T04:56:23;18.05;;;13.40;;
50128;SDS011;36026;45.478;9.224;2022-10-22T04:59:26;16.95;;;12.35;;
50128;SDS011;36026;45.478;9.224;2022-10-22T05:02:27;16.83;;;12.48;;
50128;SDS011;36026;45.478;9.224;2022-10-22T05:05:30;19.00;;;11.63;;
50128;SDS011;36026;45.478;9.224;2022-10-22T05:08:32;18.52;;;13.15;;
50128;SDS011;36026;45.478;9.224;2022-10-22T05:11:34;14.70;;;12.30;;
50128;SDS011;36026;45.478;9.224;2022-10-22T05:14:37;16.67;;;12.90;;
50128;SDS011;36026;45.478;9.224;2022-10-22T05:17:38;17.85;;;13.48;;
50128;SDS011;36026;45.478;9.224;2022-10-22T05:20:41;18.20;;;12.55;;
50128;SDS011;36026;45.478;9.224;2022-10-22T05:23:43;18.93;;;12.40;;
50128;SDS011;36026;45.478;9.224;2022-10-22T05:26:47;17.63;;;12.25;;
50128;SDS011;36026;45.478;9.224;2022-10-22T05:29:49;17.58;;;13.13;;
50128;SDS011;36026;45.478;9.224;2022-10-22T05:32:50;20.98;;;13.95;;
50128;SDS011;36026;45.478;9.224;2022-10-22T05:35:53;17.98;;;13.40;;
50128;SDS011;36026;45.478;9.224;2022-10-22T05:38:55;17.25;;;12.32;;
50128;SDS011;36026;45.478;9.224;2022-10-22T05:41:57;18.50;;;12.77;;
50128;SDS011;36026;45.478;9.224;2022-10-22T05:44:59;17.30;;;12.70;;
50128;SDS011;36026;45.478;9.224;2022-10-22T05:48:00;16.92;;;13.45;;
50128;SDS011;36026;45.478;9.224;2022-10-22T05:51:03;18.92;;;13.40;;
50128;SDS011;36026;45.478;9.224;2022-10-22T05:54:07;17.02;;;13.30;;
50128;SDS011;36026;45.478;9.224;2022-10-22T05:57:10;15.57;;;11.70;;
50128;SDS011;36026;45.478;9.224;2022-10-22T06:00:12;18.40;;;13.23;;
50128;SDS011;36026;45.478;9.224;2022-10-22T06:03:14;17.30;;;13.43;;
50128;SDS011;36026;45.478;9.224;2022-10-22T06:06:18;21.27;;;13.10;;
50128;SDS011;36026;45.478;9.224;2022-10-22T06:09:21;18.48;;;13.15;;
50128;SDS011;36026;45.478;9.224;2022-10-22T06:12:25;19.23;;;13.68;;
50128;SDS011;36026;45.478;9.224;2022-10-22T06:15:26;16.63;;;12.15;;
50128;SDS011;36026;45.478;9.224;2022-10-22T06:18:28;20.38;;;13.07;;
50128;SDS011;36026;45.478;9.224;2022-10-22T06:21:31;17.88;;;11.98;;
50128;SDS011;36026;45.478;9.224;2022-10-22T06:24:33;19.13;;;12.38;;
50128;SDS011;36026;45.478;9.224;2022-10-22T06:27:34;16.00;;;12.15;;
50128;SDS011;36026;45.478;9.224;2022-10-22T06:30:36;18.20;;;11.93;;
50128;SDS011;36026;45.478;9.224;2022-10-22T06:33:38;16.48;;;11.52;;
50128;SDS011;36026;45.478;9.224;2022-10-22T06:36:42;17.77;;;11.57;;
50128;SDS011;36026;45.478;9.224;2022-10-22T06:39:44;18.95;;;12.23;;
50128;SDS011;36026;45.478;9.224;2022-10-22T06:42:46;16.60;;;12.55;;
50128;SDS011;36026;45.478;9.224;2022-10-22T06:45:47;20.63;;;12.88;;
50128;SDS011;36026;45.478;9.224;2022-10-22T06:48:49;16.42;;;11.23;;
50128;SDS011;36026;45.478;9.224;2022-10-22T06:51:53;17.05;;;11.95;;
50128;SDS011;36026;45.478;9.224;2022-10-22T06:54:55;19.02;;;12.20;;
50128;SDS011;36026;45.478;9.224;2022-10-22T06:57:56;16.63;;;11.65;;
50128;SDS011;36026;45.478;9.224;2022-10-22T07:01:01;16.85;;;12.10;;
50128;SDS011;36026;45.478;9.224;2022-10-22T07:04:04;14.13;;;11.48;;
50128;SDS011;36026;45.478;9.224;2022-10-22T07:07:07;15.98;;;11.52;;
50128;SDS011;36026;45.478;9.224;2022-10-22T07:10:09;17.85;;;11.80;;
50128;SDS011;36026;45.478;9.224;2022-10-22T07:13:10;16.75;;;12.10;;
50128;SDS011;36026;45.478;9.224;2022-10-22T07:16:12;15.38;;;11.45;;
50128;SDS011;36026;45.478;9.224;2022-10-22T07:19:14;16.58;;;12.10;;
50128;SDS011;36026;45.478;9.224;2022-10-22T07:22:17;16.05;;;12.10;;
50128;SDS011;36026;45.478;9.224;2022-10-22T07:25:18;16.25;;;11.60;;
50128;SDS011;36026;45.478;9.224;2022-10-22T07:28:20;18.55;;;12.15;;
50128;SDS011;36026;45.478;9.224;2022-10-22T07:31:21;17.60;;;11.98;;
50128;SDS011;36026;45.478;9.224;2022-10-22T07:34:23;16.58;;;11.68;;
50128;SDS011;36026;45.478;9.224;2022-10-22T07:37:26;18.80;;;11.55;;
50128;SDS011;36026;45.478;9.224;2022-10-22T07:40:28;15.57;;;10.93;;
50128;SDS011;36026;45.478;9.224;2022-10-22T07:43:29;18.05;;;12.73;;
50128;SDS011;36026;45.478;9.224;2022-10-22T07:46:31;17.00;;;11.68;;
50128;SDS011;36026;45.478;9.224;2022-10-22T07:49:34;16.40;;;12.00;;
50128;SDS011;36026;45.478;9.224;2022-10-22T07:52:37;15.23;;;11.88;;
50128;SDS011;36026;45.478;9.224;2022-10-22T07:55:38;17.13;;;12.70;;
50128;SDS011;36026;45.478;9.224;2022-10-22T07:58:40;16.77;;;12.82;;
50128;SDS011;36026;45.478;9.224;2022-10-22T08:01:41;16.27;;;11.10;;
50128;SDS011;36026;45.478;9.224;2022-10-22T08:04:43;21.45;;;12.75;;
50128;SDS011;36026;45.478;9.224;2022-10-22T08:07:46;16.63;;;12.43;;
50128;SDS011;36026;45.478;9.224;2022-10-22T08:10:49;17.08;;;11.73;;
50128;SDS011;36026;45.478;9.224;2022-10-22T08:13:52;20.60;;;13.13;;
50128;SDS011;36026;45.478;9.224;2022-10-22T08:16:54;17.33;;;13.20;;
50128;SDS011;36026;45.478;9.224;2022-10-22T08:19:55;19.70;;;13.02;;
50128;SDS011;36026;45.478;9.224;2022-10-22T08:22:59;17.95;;;12.50;;
50128;SDS011;36026;45.478;9.224;2022-10-22T08:26:00;19.85;;;14.27;;
50128;SDS011;36026;45.478;9.224;2022-10-22T08:29:03;19.80;;;13.70;;
50128;SDS011;36026;45.478;9.224;2022-10-22T08:32:04;17.45;;;12.82;;
50128;SDS011;36026;45.478;9.224;2022-10-22T08:35:06;20.73;;;14.20;;
50128;SDS011;36026;45.478;9.224;2022-10-22T08:38:09;17.55;;;12.93;;
50128;SDS011;36026;45.478;9.224;2022-10-22T08:41:11;21.13;;;14.30;;
50128;SDS011;36026;45.478;9.224;2022-10-22T08:44:34;20.50;;;14.35;;
50128;SDS011;36026;45.478;9.224;2022-10-22T08:47:47;18.67;;;13.80;;
50128;SDS011;36026;45.478;9.224;2022-10-22T08:50:59;19.63;;;13.68;;
50128;SDS011;36026;45.478;9.224;2022-10-22T08:54:12;25.77;;;13.88;;
50128;SDS011;36026;45.478;9.224;2022-10-22T09:00:43;18.55;;;13.88;;
50128;SDS011;36026;45.478;9.224;2022-10-22T09:03:48;23.40;;;14.20;;
50128;SDS011;36026;45.478;9.224;2022-10-22T09:06:51;23.45;;;14.15;;
50128;SDS011;36026;45.478;9.224;2022-10-22T09:09:55;17.05;;;13.75;;
50128;SDS011;36026;45.478;9.224;2022-10-22T09:12:57;18.20;;;11.95;;
50128;SDS011;36026;45.478;9.224;2022-10-22T09:16:00;16.15;;;11.60;;
50128;SDS011;36026;45.478;9.224;2022-10-22T09:19:05;17.37;;;12.90;;
50128;SDS011;36026;45.478;9.224;2022-10-22T09:22:15;16.77;;;12.95;;
50128;SDS011;36026;45.478;9.224;2022-10-22T09:25:24;15.50;;;11.80;;
50128;SDS011;36026;45.478;9.224;2022-10-22T09:28:27;19.25;;;12.23;;
50128;SDS011;36026;45.478;9.224;2022-10-22T09:31:29;16.23;;;12.05;;
50128;SDS011;36026;45.478;9.224;2022-10-22T09:34:32;18.50;;;12.23;;
50128;SDS011;36026;45.478;9.224;2022-10-22T09:37:34;14.82;;;11.63;;
50128;SDS011;36026;45.478;9.224;2022-10-22T09:40:42;19.85;;;12.00;;
50128;SDS011;36026;45.478;9.224;2022-10-22T09:43:45;20.27;;;11.90;;
50128;SDS011;36026;45.478;9.224;2022-10-22T09:46:47;18.55;;;11.88;;
50128;SDS011;36026;45.478;9.224;2022-10-22T09:49:49;20.25;;;12.27;;
50128;SDS011;36026;45.478;9.224;2022-10-22T09:52:56;20.13;;;14.20;;
50128;SDS011;36026;45.478;9.224;2022-10-22T09:56:05;19.92;;;13.38;;
50128;SDS011;36026;45.478;9.224;2022-10-22T09:59:11;18.00;;;13.20;;
50128;SDS011;36026;45.478;9.224;2022-10-22T10:02:17;20.48;;;13.52;;
50128;SDS011;36026;45.478;9.224;2022-10-22T10:05:23;19.25;;;14.90;;
50128;SDS011;36026;45.478;9.224;2022-10-22T10:08:26;18.38;;;14.40;;
50128;SDS011;36026;45.478;9.224;2022-10-22T10:11:31;15.85;;;13.05;;
50128;SDS011;36026;45.478;9.224;2022-10-22T10:14:38;19.90;;;13.15;;
50128;SDS011;36026;45.478;9.224;2022-10-22T10:17:45;18.70;;;13.30;;
50128;SDS011;36026;45.478;9.224;2022-10-22T10:20:51;22.83;;;14.35;;
50128;SDS011;36026;45.478;9.224;2022-10-22T10:23:57;21.67;;;13.13;;
50128;SDS011;36026;45.478;9.224;2022-10-22T10:27:06;22.70;;;15.15;;
50128;SDS011;36026;45.478;9.224;2022-10-22T10:30:11;19.45;;;13.90;;
50128;SDS011;36026;45.478;9.224;2022-10-22T10:36:22;19.13;;;13.48;;
50128;SDS011;36026;45.478;9.224;2022-10-22T10:39:29;19.05;;;13.70;;
50128;SDS011;36026;45.478;9.224;2022-10-22T10:42:37;18.67;;;12.77;;
50128;SDS011;36026;45.478;9.224;2022-10-22T10:45:42;21.70;;;15.18;;
50128;SDS011;36026;45.478;9.224;2022-10-22T10:48:53;23.02;;;15.43;;
50128;SDS011;36026;45.478;9.224;2022-10-22T10:51:56;21.73;;;16.65;;
50128;SDS011;36026;45.478;9.224;2022-10-22T10:55:08;23.25;;;16.50;;
50128;SDS011;36026;45.478;9.224;2022-10-22T10:58:17;20.27;;;15.18;;
50128;SDS011;36026;45.478;9.224;2022-10-22T11:01:23;20.75;;;15.50;;
50128;SDS011;36026;45.478;9.224;2022-10-22T11:04:44;20.45;;;15.23;;
50128;SDS011;36026;45.478;9.224;2022-10-22T11:07:55;23.08;;;16.02;;
50128;SDS011;36026;45.478;9.224;2022-10-22T11:10:58;22.83;;;15.85;;
50128;SDS011;36026;45.478;9.224;2022-10-22T11:14:04;18.35;;;14.07;;
50128;SDS011;36026;45.478;9.224;2022-10-22T11:17:12;21.35;;;15.02;;
50128;SDS011;36026;45.478;9.224;2022-10-22T11:20:16;23.10;;;15.68;;
50128;SDS011;36026;45.478;9.224;2022-10-22T11:23:20;20.75;;;15.23;;
50128;SDS011;36026;45.478;9.224;2022-10-22T11:26:28;22.10;;;15.50;;
50128;SDS011;36026;45.478;9.224;2022-10-22T11:29:38;19.05;;;15.18;;
50128;SDS011;36026;45.478;9.224;2022-10-22T11:32:41;21.52;;;15.95;;
50128;SDS011;36026;45.478;9.224;2022-10-22T11:35:44;22.42;;;15.35;;
50128;SDS011;36026;45.478;9.224;2022-10-22T11:38:46;20.88;;;15.20;;
50128;SDS011;36026;45.478;9.224;2022-10-22T11:41:48;26.40;;;17.67;;
50128;SDS011;36026;45.478;9.224;2022-10-22T11:44:59;22.33;;;15.20;;
50128;SDS011;36026;45.478;9.224;2022-10-22T11:48:05;25.08;;;14.95;;
50128;SDS011;36026;45.478;9.224;2022-10-22T11:51:28;24.92;;;15.80;;
50128;SDS011;36026;45.478;9.224;2022-10-22T11:54:37;18.42;;;14.70;;
50128;SDS011;36026;45.478;9.224;2022-10-22T11:57:41;23.27;;;14.55;;
50128;SDS011;36026;45.478;9.224;2022-10-22T12:00:46;20.92;;;14.75;;
50128;SDS011;36026;45.478;9.224;2022-10-22T12:03:49;22.42;;;15.27;;
50128;SDS011;36026;45.478;9.224;2022-10-22T12:06:56;21.55;;;16.20;;
50128;SDS011;36026;45.478;9.224;2022-10-22T12:09:59;21.80;;;14.55;;
50128;SDS011;36026;45.478;9.224;2022-10-22T12:13:09;17.92;;;14.02;;
50128;SDS011;36026;45.478;9.224;2022-10-22T12:16:15;24.27;;;16.38;;
50128;SDS011;36026;45.478;9.224;2022-10-22T12:19:22;21.02;;;13.35;;
50128;SDS011;36026;45.478;9.224;2022-10-22T12:22:26;17.65;;;13.02;;
50128;SDS011;36026;45.478;9.224;2022-10-22T12:25:29;14.68;;;11.15;;
50128;SDS011;36026;45.478;9.224;2022-10-22T12:28:36;18.75;;;13.02;;
50128;SDS011;36026;45.478;9.224;2022-10-22T12:31:41;16.88;;;12.40;;
50128;SDS011;36026;45.478;9.224;2022-10-22T12:34:44;16.35;;;11.57;;
50128;SDS011;36026;45.478;9.224;2022-10-22T12:37:48;14.48;;;10.50;;
50128;SDS011;36026;45.478;9.224;2022-10-22T12:40:50;14.00;;;9.52;;
50128;SDS011;36026;45.478;9.224;2022-10-22T12:43:57;14.80;;;9.70;;
50128;SDS011;36026;45.478;9.224;2022-10-22T12:47:00;12.27;;;8.27;;
50128;SDS011;36026;45.478;9.224;2022-10-22T12:50:02;14.25;;;9.85;;
50128;SDS011;36026;45.478;9.224;2022-10-22T12:53:04;15.52;;;10.18;;
50128;SDS011;36026;45.478;9.224;2022-10-22T12:56:09;13.10;;;9.10;;
50128;SDS011;36026;45.478;9.224;2022-10-22T12:59:14;11.20;;;7.32;;
50128;SDS011;36026;45.478;9.224;2022-10-22T13:02:20;12.65;;;7.53;;
50128;SDS011;36026;45.478;9.224;2022-10-22T13:05:24;10.50;;;7.78;;
50128;SDS011;36026;45.478;9.224;2022-10-22T13:08:26;10.15;;;6.80;;
50128;SDS011;36026;45.478;9.224;2022-10-22T13:11:30;17.85;;;12.35;;
50128;SDS011;36026;45.478;9.224;2022-10-22T13:14:34;13.80;;;8.07;;
50128;SDS011;36026;45.478;9.224;2022-10-22T13:17:39;10.35;;;7.53;;
50128;SDS011;36026;45.478;9.224;2022-10-22T13:20:54;10.93;;;7.70;;
50128;SDS011;36026;45.478;9.224;2022-10-22T13:23:57;14.55;;;9.27;;
50128;SDS011;36026;45.478;9.224;2022-10-22T13:27:00;16.45;;;10.88;;
50128;SDS011;36026;45.478;9.224;2022-10-22T13:30:02;14.93;;;9.95;;
50128;SDS011;36026;45.478;9.224;2022-10-22T13:33:23;12.85;;;7.95;;
50128;SDS011;36026;45.478;9.224;2022-10-22T13:36:27;12.75;;;7.60;;
50128;SDS011;36026;45.478;9.224;2022-10-22T13:39:28;17.02;;;10.38;;
50128;SDS011;36026;45.478;9.224;2022-10-22T13:42:32;13.90;;;9.98;;
50128;SDS011;36026;45.478;9.224;2022-10-22T13:48:37;17.15;;;9.57;;
50128;SDS011;36026;45.478;9.224;2022-10-22T13:51:39;13.13;;;8.70;;
50128;SDS011;36026;45.478;9.224;2022-10-22T13:54:41;14.10;;;10.18;;
50128;SDS011;36026;45.478;9.224;2022-10-22T13:57:43;11.40;;;8.40;;
50128;SDS011;36026;45.478;9.224;2022-10-22T14:00:46;11.63;;;8.68;;
50128;SDS011;36026;45.478;9.224;2022-10-22T14:03:52;16.40;;;13.45;;
50128;SDS011;36026;45.478;9.224;2022-10-22T14:06:56;12.63;;;9.45;;
50128;SDS011;36026;45.478;9.224;2022-10-22T14:09:58;10.50;;;8.23;;
50128;SDS011;36026;45.478;9.224;2022-10-22T14:13:00;14.00;;;11.15;;
50128;SDS011;36026;45.478;9.224;2022-10-22T14:16:01;14.65;;;8.93;;
50128;SDS011;36026;45.478;9.224;2022-10-22T14:19:08;11.98;;;9.70;;
50128;SDS011;36026;45.478;9.224;2022-10-22T14:22:14;12.68;;;8.73;;
50128;SDS011;36026;45.478;9.224;2022-10-22T14:25:17;15.88;;;9.88;;
50128;SDS011;36026;45.478;9.224;2022-10-22T14:28:20;13.95;;;11.38;;
50128;SDS011;36026;45.478;9.224;2022-10-22T14:31:22;16.57;;;11.20;;
50128;SDS011;36026;45.478;9.224;2022-10-22T14:34:25;14.05;;;11.80;;
50128;SDS011;36026;45.478;9.224;2022-10-22T14:37:26;16.30;;;11.25;;
50128;SDS011;36026;45.478;9.224;2022-10-22T14:40:28;15.90;;;11.40;;
50128;SDS011;36026;45.478;9.224;2022-10-22T14:43:30;16.23;;;12.48;;
50128;SDS011;36026;45.478;9.224;2022-10-22T14:46:31;14.27;;;12.05;;
50128;SDS011;36026;45.478;9.224;2022-10-22T14:49:34;14.93;;;10.45;;
50128;SDS011;36026;45.478;9.224;2022-10-22T14:52:36;13.90;;;9.68;;
50128;SDS011;36026;45.478;9.224;2022-10-22T14:55:38;15.07;;;10.93;;
50128;SDS011;36026;45.478;9.224;2022-10-22T14:58:40;11.85;;;9.75;;
50128;SDS011;36026;45.478;9.224;2022-10-22T15:01:41;18.90;;;11.90;;
50128;SDS011;36026;45.478;9.224;2022-10-22T15:04:44;22.30;;;13.90;;
50128;SDS011;36026;45.478;9.224;2022-10-22T15:10:56;14.88;;;12.45;;
50128;SDS011;36026;45.478;9.224;2022-10-22T15:13:58;15.85;;;10.75;;
50128;SDS011;36026;45.478;9.224;2022-10-22T15:17:00;15.10;;;10.93;;
50128;SDS011;36026;45.478;9.224;2022-10-22T15:20:04;12.52;;;9.68;;
50128;SDS011;36026;45.478;9.224;2022-10-22T15:23:06;23.95;;;14.88;;
50128;SDS011;36026;45.478;9.224;2022-10-22T15:26:07;21.00;;;15.00;;
50128;SDS011;36026;45.478;9.224;2022-10-22T15:29:09;20.20;;;13.80;;
50128;SDS011;36026;45.478;9.224;2022-10-22T15:32:11;19.33;;;13.15;;
50128;SDS011;36026;45.478;9.224;2022-10-22T15:35:14;22.80;;;14.13;;
50128;SDS011;36026;45.478;9.224;2022-10-22T15:38:16;43.58;;;14.02;;
50128;SDS011;36026;45.478;9.224;2022-10-22T15:41:17;36.63;;;16.48;;
50128;SDS011;36026;45.478;9.224;2022-10-22T15:44:20;19.27;;;12.75;;
50128;SDS011;36026;45.478;9.224;2022-10-22T15:47:22;21.90;;;13.57;;
50128;SDS011;36026;45.478;9.224;2022-10-22T15:50:26;27.38;;;14.48;;
50128;SDS011;36026;45.478;9.224;2022-10-22T15:53:27;22.40;;;15.52;;
50128;SDS011;36026;45.478;9.224;2022-10-22T15:56:29;18.92;;;12.90;;
50128;SDS011;36026;45.478;9.224;2022-10-22T15:59:31;20.85;;;13.65;;
50128;SDS011;36026;45.478;9.224;2022-10-22T16:02:32;22.48;;;15.35;;
50128;SDS011;36026;45.478;9.224;2022-10-22T16:05:35;23.92;;;15.13;;
50128;SDS011;36026;45.478;9.224;2022-10-22T16:08:37;25.27;;;16.90;;
50128;SDS011;36026;45.478;9.224;2022-10-22T16:11:39;24.42;;;16.73;;
50128;SDS011;36026;45.478;9.224;2022-10-22T16:14:41;24.48;;;16.30;;
50128;SDS011;36026;45.478;9.224;2022-10-22T16:17:43;22.83;;;15.88;;
50128;SDS011;36026;45.478;9.224;2022-10-22T16:20:46;27.00;;;16.95;;
50128;SDS011;36026;45.478;9.224;2022-10-22T16:23:48;21.65;;;17.13;;
50128;SDS011;36026;45.478;9.224;2022-10-22T16:26:49;24.10;;;15.18;;
50128;SDS011;36026;45.478;9.224;2022-10-22T16:29:52;26.07;;;17.47;;
50128;SDS011;36026;45.478;9.224;2022-10-22T16:32:53;24.77;;;15.95;;
50128;SDS011;36026;45.478;9.224;2022-10-22T16:35:56;26.75;;;17.58;;
50128;SDS011;36026;45.478;9.224;2022-10-22T16:38:58;22.00;;;16.08;;
50128;SDS011;36026;45.478;9.224;2022-10-22T16:42:00;21.73;;;16.80;;
50128;SDS011;36026;45.478;9.224;2022-10-22T16:45:01;23.17;;;16.45;;
50128;SDS011;36026;45.478;9.224;2022-10-22T16:48:03;28.83;;;17.85;;
50128;SDS011;36026;45.478;9.224;2022-10-22T16:51:07;23.00;;;16.80;;
50128;SDS011;36026;45.478;9.224;2022-10-22T16:54:10;20.15;;;14.52;;
50128;SDS011;36026;45.478;9.224;2022-10-22T16:57:12;30.90;;;16.70;;
50128;SDS011;36026;45.478;9.224;2022-10-22T17:00:14;25.33;;;15.75;;
50128;SDS011;36026;45.478;9.224;2022-10-22T17:03:16;24.50;;;16.48;;
50128;SDS011;36026;45.478;9.224;2022-10-22T17:06:19;28.70;;;16.95;;
50128;SDS011;36026;45.478;9.224;2022-10-22T17:09:21;28.27;;;18.15;;
50128;SDS011;36026;45.478;9.224;2022-10-22T17:12:23;25.08;;;17.27;;
50128;SDS011;36026;45.478;9.224;2022-10-22T17:15:24;28.45;;;17.08;;
50128;SDS011;36026;45.478;9.224;2022-10-22T17:18:26;24.58;;;17.20;;
50128;SDS011;36026;45.478;9.224;2022-10-22T17:21:29;23.25;;;16.08;;
50128;SDS011;36026;45.478;9.224;2022-10-22T17:24:31;23.63;;;16.15;;
50128;SDS011;36026;45.478;9.224;2022-10-22T17:27:32;22.80;;;14.82;;
50128;SDS011;36026;45.478;9.224;2022-10-22T17:30:34;26.42;;;15.95;;
50128;SDS011;36026;45.478;9.224;2022-10-22T17:33:38;22.83;;;14.80;;
50128;SDS011;36026;45.478;9.224;2022-10-22T17:36:41;21.15;;;14.73;;
50128;SDS011;36026;45.478;9.224;2022-10-22T17:42:44;25.45;;;16.38;;
50128;SDS011;36026;45.478;9.224;2022-10-22T17:45:46;23.80;;;17.13;;
50128;SDS011;36026;45.478;9.224;2022-10-22T17:48:48;21.95;;;15.48;;
50128;SDS011;36026;45.478;9.224;2022-10-22T17:51:51;26.50;;;17.97;;
50128;SDS011;36026;45.478;9.224;2022-10-22T17:54:53;25.80;;;17.27;;
50128;SDS011;36026;45.478;9.224;2022-10-22T17:57:55;25.15;;;16.13;;
50128;SDS011;36026;45.478;9.224;2022-10-22T18:00:56;31.77;;;18.42;;
50128;SDS011;36026;45.478;9.224;2022-10-22T18:03:58;28.52;;;17.77;;
50128;SDS011;36026;45.478;9.224;2022-10-22T18:07:02;25.67;;;18.05;;
50128;SDS011;36026;45.478;9.224;2022-10-22T18:10:05;25.80;;;17.13;;
50128;SDS011;36026;45.478;9.224;2022-10-22T18:13:07;25.60;;;18.77;;
50128;SDS011;36026;45.478;9.224;2022-10-22T18:16:09;26.20;;;17.58;;